<?xml version='1.0' encoding='utf-8'?>
<gpx xmlns="http://www.topografix.com/GPX/1/1" xmlns:om="http://www.oruxmaps.com/oruxmapsextensions/1/0" xmlns:xsi="http://www.w3.org/2001/XMLSchema-instance" creator="OruxMaps v.6.0.7 Donate" version="1.1" xsi:schemaLocation="http://www.topografix.com/GPX/1/1 http://www.topografix.com/GPX/1/1/gpx.xsd">
<metadata>
<name>2015-05-02 12:37</name>
<desc />
<link href="http://www.oruxmaps.com">
<text>OruxMaps</text>
</link>
<time>2015-05-02T09:37:33Z</time><bounds maxlat="35.0327816" maxlon="33.6581870" minlat="34.8914561" minlon="33.5683650" />
</metadata>
<trk>
<name>2015-05-02 12:37</name>
<desc>&lt;h1&gt;OruxMaps&lt;/h1&gt;&lt;br /&gt;&lt;hr align="center" width="480" style="height: 2px; width: 517px"/&gt;&lt;h2&gt;Name: 2015-05-02 12:37&lt;/h2&gt;&lt;br /&gt;&lt;p&gt;Start time: 05/02/2015 12:37&lt;/p&gt;&lt;p&gt;Finish time: 05/02/2015 18:53&lt;/p&gt;&lt;p&gt;Distance: 52.2km (06:16)&lt;/p&gt;&lt;p&gt;Moving time: 03:48&lt;/p&gt;&lt;p&gt;Average speed: 8.3km/h&lt;/p&gt;&lt;p&gt;Avg. Speed Mov.: 13.7km/h&lt;/p&gt;&lt;p&gt;Max. Speed: 40.3km/h&lt;/p&gt;&lt;p&gt;Minimum altitude: 2m&lt;/p&gt;&lt;p&gt;Maximum altitude: 186m&lt;/p&gt;&lt;p&gt;Ascent speed: 296.3m/h&lt;/p&gt;&lt;p&gt;Descent speed: -419.7m/h&lt;/p&gt;&lt;p&gt;Elevation gain: 907m&lt;/p&gt;&lt;p&gt;Elevation loss: -889m&lt;/p&gt;&lt;p&gt;Ascent time: 03:03&lt;/p&gt;&lt;p&gt;Descent time: 02:07&lt;/p&gt;&lt;hr align="center" width="480" style="height: 2px; width: 517px"/&gt;</desc>
<type>Undefined</type>
<extensions>
<om:oruxmapsextensions>
<om:ext type="TYPE" subtype="0">0</om:ext>
</om:oruxmapsextensions>
</extensions>
<trkseg>
<trkpt lat="34.9281432" lon="33.6354294">
<ele>4.7</ele>
<time>2015-05-02T09:37:35Z</time>
</trkpt>
<trkpt lat="34.9280831" lon="33.6368178">
<ele>6.8</ele>
<time>2015-05-02T09:52:10Z</time>
</trkpt>
<trkpt lat="34.9293033" lon="33.6370766">
<ele>6.1</ele>
<time>2015-05-02T09:52:36Z</time>
</trkpt>
<trkpt lat="34.9303582" lon="33.6364771">
<ele>3.1</ele>
<time>2015-05-02T09:52:59Z</time>
</trkpt>
<trkpt lat="34.9308414" lon="33.6371541">
<ele>3.1</ele>
<time>2015-05-02T09:53:36Z</time>
</trkpt>
<trkpt lat="34.9314114" lon="33.6376129">
<ele>5.0</ele>
<time>2015-05-02T09:53:49Z</time>
</trkpt>
<trkpt lat="34.9337034" lon="33.6387334">
<ele>2.4</ele>
<time>2015-05-02T09:54:25Z</time>
</trkpt>
<trkpt lat="34.9358061" lon="33.6401540">
<ele>2.2</ele>
<time>2015-05-02T09:55:11Z</time>
</trkpt>
<trkpt lat="34.9422994" lon="33.6425911">
<ele>1.9</ele>
<time>2015-05-02T09:57:31Z</time>
</trkpt>
<trkpt lat="34.9427743" lon="33.6423578">
<ele>2.9</ele>
<time>2015-05-02T09:57:50Z</time>
</trkpt>
<trkpt lat="34.9429707" lon="33.6415668">
<ele>2.4</ele>
<time>2015-05-02T09:58:15Z</time>
</trkpt>
<trkpt lat="34.9428134" lon="33.6422938">
<ele>2.9</ele>
<time>2015-05-02T09:58:33Z</time>
</trkpt>
<trkpt lat="34.9423558" lon="33.6426536">
<ele>1.9</ele>
<time>2015-05-02T09:58:57Z</time>
</trkpt>
<trkpt lat="34.9430619" lon="33.6425248">
<ele>2.2</ele>
<time>2015-05-02T09:59:09Z</time>
</trkpt>
<trkpt lat="34.9450406" lon="33.6441838">
<ele>2.1</ele>
<time>2015-05-02T09:59:41Z</time>
</trkpt>
<trkpt lat="34.9480438" lon="33.6458184">
<ele>2.8</ele>
<time>2015-05-02T10:00:27Z</time>
</trkpt>
<trkpt lat="34.9509846" lon="33.6486610">
<ele>2.0</ele>
<time>2015-05-02T10:01:19Z</time>
</trkpt>
<trkpt lat="34.9514779" lon="33.6489377">
<ele>1.6</ele>
<time>2015-05-02T10:01:27Z</time>
</trkpt>
<trkpt lat="34.9518566" lon="33.6489073">
<ele>1.7</ele>
<time>2015-05-02T10:01:33Z</time>
</trkpt>
<trkpt lat="34.9523126" lon="33.6498717">
<ele>1.5</ele>
<time>2015-05-02T10:01:47Z</time>
</trkpt>
<trkpt lat="34.9563935" lon="33.6530198">
<ele>1.9</ele>
<time>2015-05-02T10:02:54Z</time>
</trkpt>
<trkpt lat="34.9609942" lon="33.6581666">
<ele>4.1</ele>
<time>2015-05-02T10:04:35Z</time>
</trkpt>
<trkpt lat="34.9636416" lon="33.6573400">
<ele>3.7</ele>
<time>2015-05-02T10:05:23Z</time>
</trkpt>
<trkpt lat="34.9683649" lon="33.6572309">
<ele>2.4</ele>
<time>2015-05-02T10:06:33Z</time>
</trkpt>
<trkpt lat="34.9689337" lon="33.6568862">
<ele>2.6</ele>
<time>2015-05-02T10:06:42Z</time>
</trkpt>
<trkpt lat="34.9701789" lon="33.6555260">
<ele>3.1</ele>
<time>2015-05-02T10:07:06Z</time>
</trkpt>
<trkpt lat="34.9706812" lon="33.6549621">
<ele>3.3</ele>
<time>2015-05-02T10:07:41Z</time>
</trkpt>
<trkpt lat="34.9706605" lon="33.6546643">
<ele>3.6</ele>
<time>2015-05-02T10:16:21Z</time>
</trkpt>
<trkpt lat="34.9709063" lon="33.6547150">
<ele>4.0</ele>
<time>2015-05-02T10:18:28Z</time>
</trkpt>
<trkpt lat="34.9726928" lon="33.6527661">
<ele>5.7</ele>
<time>2015-05-02T10:19:26Z</time>
</trkpt>
<trkpt lat="34.9732774" lon="33.6525183">
<ele>7.3</ele>
<time>2015-05-02T10:19:38Z</time>
</trkpt>
<trkpt lat="34.9740872" lon="33.6527360">
<ele>10.1</ele>
<time>2015-05-02T10:19:54Z</time>
</trkpt>
<trkpt lat="34.9747127" lon="33.6535272">
<ele>7.6</ele>
<time>2015-05-02T10:20:10Z</time>
</trkpt>
<trkpt lat="34.9748304" lon="33.6542447">
<ele>8.7</ele>
<time>2015-05-02T10:20:22Z</time>
</trkpt>
<trkpt lat="34.9747678" lon="33.6571313">
<ele>16.1</ele>
<time>2015-05-02T10:21:21Z</time>
</trkpt>
<trkpt lat="34.9748771" lon="33.6574158">
<ele>15.9</ele>
<time>2015-05-02T10:21:29Z</time>
</trkpt>
<trkpt lat="34.9774111" lon="33.6572578">
<ele>21.5</ele>
<time>2015-05-02T10:22:25Z</time>
</trkpt>
<trkpt lat="34.9811867" lon="33.6565710">
<ele>24.0</ele>
<time>2015-05-02T10:23:34Z</time>
</trkpt>
<trkpt lat="34.9830427" lon="33.6558416">
<ele>27.1</ele>
<time>2015-05-02T10:24:14Z</time>
</trkpt>
<trkpt lat="34.9844179" lon="33.6540818">
<ele>32.7</ele>
<time>2015-05-02T10:24:56Z</time>
</trkpt>
<trkpt lat="34.9857367" lon="33.6529786">
<ele>36.8</ele>
<time>2015-05-02T10:25:36Z</time>
</trkpt>
<trkpt lat="34.9859860" lon="33.6523912">
<ele>39.9</ele>
<time>2015-05-02T10:25:50Z</time>
</trkpt>
<trkpt lat="34.9865140" lon="33.6520504">
<ele>41.0</ele>
<time>2015-05-02T10:26:10Z</time>
</trkpt>
<trkpt lat="34.9867149" lon="33.6513858">
<ele>46.1</ele>
<time>2015-05-02T10:26:33Z</time>
</trkpt>
<trkpt lat="34.9866445" lon="33.6506256">
<ele>48.3</ele>
<time>2015-05-02T10:26:56Z</time>
</trkpt>
<trkpt lat="34.9863736" lon="33.6505787">
<ele>48.2</ele>
<time>2015-05-02T10:27:18Z</time>
</trkpt>
<trkpt lat="34.9863506" lon="33.6501151">
<ele>51.0</ele>
<time>2015-05-02T10:27:36Z</time>
</trkpt>
<trkpt lat="34.9851612" lon="33.6497956">
<ele>59.3</ele>
<time>2015-05-02T10:29:06Z</time>
</trkpt>
<trkpt lat="34.9844713" lon="33.6493833">
<ele>63.0</ele>
<time>2015-05-02T10:29:52Z</time>
</trkpt>
<trkpt lat="34.9840770" lon="33.6485642">
<ele>71.0</ele>
<time>2015-05-02T10:30:37Z</time>
</trkpt>
<trkpt lat="34.9832077" lon="33.6479271">
<ele>80.8</ele>
<time>2015-05-02T10:31:28Z</time>
</trkpt>
<trkpt lat="34.9820613" lon="33.6478414">
<ele>93.0</ele>
<time>2015-05-02T10:32:42Z</time>
</trkpt>
<trkpt lat="34.9815085" lon="33.6475701">
<ele>92.4</ele>
<time>2015-05-02T10:33:07Z</time>
</trkpt>
<trkpt lat="34.9812937" lon="33.6471850">
<ele>100.4</ele>
<time>2015-05-02T10:33:29Z</time>
</trkpt>
<trkpt lat="34.9818394" lon="33.6474956">
<ele>102.9</ele>
<time>2015-05-02T10:33:54Z</time>
</trkpt>
<trkpt lat="34.9830697" lon="33.6473910">
<ele>106.4</ele>
<time>2015-05-02T10:34:34Z</time>
</trkpt>
<trkpt lat="34.9847955" lon="33.6479281">
<ele>110.5</ele>
<time>2015-05-02T10:35:27Z</time>
</trkpt>
<trkpt lat="34.9851912" lon="33.6477417">
<ele>116.7</ele>
<time>2015-05-02T10:36:03Z</time>
</trkpt>
<trkpt lat="34.9852462" lon="33.6486902">
<ele>106.8</ele>
<time>2015-05-02T10:38:07Z</time>
</trkpt>
<trkpt lat="34.9853081" lon="33.6483117">
<ele>114.3</ele>
<time>2015-05-02T10:39:53Z</time>
</trkpt>
<trkpt lat="34.9854654" lon="33.6483864">
<ele>115.8</ele>
<time>2015-05-02T10:40:05Z</time>
</trkpt>
<trkpt lat="34.9857877" lon="33.6479309">
<ele>115.5</ele>
<time>2015-05-02T10:40:25Z</time>
</trkpt>
<trkpt lat="34.9870100" lon="33.6476788">
<ele>111.4</ele>
<time>2015-05-02T10:40:54Z</time>
</trkpt>
<trkpt lat="34.9872490" lon="33.6474256">
<ele>116.1</ele>
<time>2015-05-02T10:41:16Z</time>
</trkpt>
<trkpt lat="34.9872526" lon="33.6471289">
<ele>118.3</ele>
<time>2015-05-02T10:41:37Z</time>
</trkpt>
<trkpt lat="34.9866509" lon="33.6467347">
<ele>120.3</ele>
<time>2015-05-02T10:42:07Z</time>
</trkpt>
<trkpt lat="34.9867817" lon="33.6462472">
<ele>126.0</ele>
<time>2015-05-02T10:42:45Z</time>
</trkpt>
<trkpt lat="34.9874659" lon="33.6462861">
<ele>130.5</ele>
<time>2015-05-02T10:43:21Z</time>
</trkpt>
<trkpt lat="34.9887695" lon="33.6469188">
<ele>134.7</ele>
<time>2015-05-02T10:44:14Z</time>
</trkpt>
<trkpt lat="34.9893619" lon="33.6465161">
<ele>142.5</ele>
<time>2015-05-02T10:44:59Z</time>
</trkpt>
<trkpt lat="34.9900425" lon="33.6465314">
<ele>154.4</ele>
<time>2015-05-02T10:45:50Z</time>
</trkpt>
<trkpt lat="34.9904043" lon="33.6468554">
<ele>160.9</ele>
<time>2015-05-02T10:46:25Z</time>
</trkpt>
<trkpt lat="34.9905035" lon="33.6473877">
<ele>165.9</ele>
<time>2015-05-02T10:47:01Z</time>
</trkpt>
<trkpt lat="34.9910416" lon="33.6475649">
<ele>171.2</ele>
<time>2015-05-02T10:47:43Z</time>
</trkpt>
<trkpt lat="34.9909793" lon="33.6477213">
<ele>171.5</ele>
<time>2015-05-02T10:47:54Z</time>
</trkpt>
<trkpt lat="34.9905106" lon="33.6478117">
<ele>159.2</ele>
<time>2015-05-02T10:48:15Z</time>
</trkpt>
<trkpt lat="34.9910127" lon="33.6477735">
<ele>171.4</ele>
<time>2015-05-02T10:49:11Z</time>
</trkpt>
<trkpt lat="34.9910006" lon="33.6502279">
<ele>157.9</ele>
<time>2015-05-02T10:50:10Z</time>
</trkpt>
<trkpt lat="34.9909916" lon="33.6481459">
<ele>170.7</ele>
<time>2015-05-02T11:03:22Z</time>
</trkpt>
<trkpt lat="34.9911167" lon="33.6474799">
<ele>171.0</ele>
<time>2015-05-02T11:03:43Z</time>
</trkpt>
<trkpt lat="34.9938233" lon="33.6466212">
<ele>140.8</ele>
<time>2015-05-02T11:05:55Z</time>
</trkpt>
<trkpt lat="34.9954028" lon="33.6458313">
<ele>141.6</ele>
<time>2015-05-02T11:06:57Z</time>
</trkpt>
<trkpt lat="34.9973038" lon="33.6453606">
<ele>162.8</ele>
<time>2015-05-02T11:09:01Z</time>
</trkpt>
<trkpt lat="34.9974552" lon="33.6448492">
<ele>158.5</ele>
<time>2015-05-02T11:09:26Z</time>
</trkpt>
<trkpt lat="34.9977442" lon="33.6450598">
<ele>152.7</ele>
<time>2015-05-02T11:09:40Z</time>
</trkpt>
<trkpt lat="34.9978175" lon="33.6453757">
<ele>151.0</ele>
<time>2015-05-02T11:09:51Z</time>
</trkpt>
<trkpt lat="34.9981599" lon="33.6445509">
<ele>140.1</ele>
<time>2015-05-02T11:10:11Z</time>
</trkpt>
<trkpt lat="34.9990872" lon="33.6441208">
<ele>125.1</ele>
<time>2015-05-02T11:10:52Z</time>
</trkpt>
<trkpt lat="34.9994006" lon="33.6441970">
<ele>117.3</ele>
<time>2015-05-02T11:10:59Z</time>
</trkpt>
<trkpt lat="34.9994608" lon="33.6445057">
<ele>111.9</ele>
<time>2015-05-02T11:11:06Z</time>
</trkpt>
<trkpt lat="34.9990102" lon="33.6454403">
<ele>100.2</ele>
<time>2015-05-02T11:11:25Z</time>
</trkpt>
<trkpt lat="34.9993277" lon="33.6461079">
<ele>94.8</ele>
<time>2015-05-02T11:11:41Z</time>
</trkpt>
<trkpt lat="35.0003253" lon="33.6472519">
<ele>89.5</ele>
<time>2015-05-02T11:12:12Z</time>
</trkpt>
<trkpt lat="35.0006264" lon="33.6466343">
<ele>99.4</ele>
<time>2015-05-02T11:12:25Z</time>
</trkpt>
<trkpt lat="35.0004040" lon="33.6461254">
<ele>102.8</ele>
<time>2015-05-02T11:12:36Z</time>
</trkpt>
<trkpt lat="34.9998783" lon="33.6455456">
<ele>104.9</ele>
<time>2015-05-02T11:12:56Z</time>
</trkpt>
<trkpt lat="34.9998220" lon="33.6448117">
<ele>108.1</ele>
<time>2015-05-02T11:13:20Z</time>
</trkpt>
<trkpt lat="34.9999401" lon="33.6446091">
<ele>106.1</ele>
<time>2015-05-02T11:13:28Z</time>
</trkpt>
<trkpt lat="35.0007764" lon="33.6443580">
<ele>99.6</ele>
<time>2015-05-02T11:14:16Z</time>
</trkpt>
<trkpt lat="35.0014482" lon="33.6443959">
<ele>95.0</ele>
<time>2015-05-02T11:14:32Z</time>
</trkpt>
<trkpt lat="35.0021536" lon="33.6437128">
<ele>95.6</ele>
<time>2015-05-02T11:14:47Z</time>
</trkpt>
<trkpt lat="35.0034828" lon="33.6435569">
<ele>85.1</ele>
<time>2015-05-02T11:15:06Z</time>
</trkpt>
<trkpt lat="35.0039013" lon="33.6426604">
<ele>69.9</ele>
<time>2015-05-02T11:17:42Z</time>
</trkpt>
<trkpt lat="35.0048454" lon="33.6429863">
<ele>55.6</ele>
<time>2015-05-02T11:18:21Z</time>
</trkpt>
<trkpt lat="35.0050665" lon="33.6432477">
<ele>48.8</ele>
<time>2015-05-02T11:19:26Z</time>
</trkpt>
<trkpt lat="35.0052838" lon="33.6427769">
<ele>50.5</ele>
<time>2015-05-02T11:19:55Z</time>
</trkpt>
<trkpt lat="35.0053381" lon="33.6419716">
<ele>55.7</ele>
<time>2015-05-02T11:20:58Z</time>
</trkpt>
<trkpt lat="35.0055938" lon="33.6430256">
<ele>54.1</ele>
<time>2015-05-02T11:21:28Z</time>
</trkpt>
<trkpt lat="35.0059108" lon="33.6430443">
<ele>52.9</ele>
<time>2015-05-02T11:21:35Z</time>
</trkpt>
<trkpt lat="35.0068266" lon="33.6423068">
<ele>52.1</ele>
<time>2015-05-02T11:21:54Z</time>
</trkpt>
<trkpt lat="35.0071829" lon="33.6417063">
<ele>53.3</ele>
<time>2015-05-02T11:22:10Z</time>
</trkpt>
<trkpt lat="35.0077961" lon="33.6414446">
<ele>54.3</ele>
<time>2015-05-02T11:22:47Z</time>
</trkpt>
<trkpt lat="35.0084986" lon="33.6397763">
<ele>59.4</ele>
<time>2015-05-02T11:23:28Z</time>
</trkpt>
<trkpt lat="35.0089818" lon="33.6394672">
<ele>60.8</ele>
<time>2015-05-02T11:23:47Z</time>
</trkpt>
<trkpt lat="35.0093788" lon="33.6387546">
<ele>62.1</ele>
<time>2015-05-02T11:24:04Z</time>
</trkpt>
<trkpt lat="35.0103635" lon="33.6377589">
<ele>63.5</ele>
<time>2015-05-02T11:24:28Z</time>
</trkpt>
<trkpt lat="35.0110939" lon="33.6366395">
<ele>62.8</ele>
<time>2015-05-02T11:24:48Z</time>
</trkpt>
<trkpt lat="35.0122122" lon="33.6344702">
<ele>69.3</ele>
<time>2015-05-02T11:25:32Z</time>
</trkpt>
<trkpt lat="35.0125075" lon="33.6341706">
<ele>69.0</ele>
<time>2015-05-02T11:25:41Z</time>
</trkpt>
<trkpt lat="35.0132692" lon="33.6321218">
<ele>71.2</ele>
<time>2015-05-02T11:26:17Z</time>
</trkpt>
<trkpt lat="35.0135123" lon="33.6291517">
<ele>73.7</ele>
<time>2015-05-02T11:27:09Z</time>
</trkpt>
<trkpt lat="35.0139965" lon="33.6274326">
<ele>74.8</ele>
<time>2015-05-02T11:27:51Z</time>
</trkpt>
<trkpt lat="35.0141168" lon="33.6257901">
<ele>76.5</ele>
<time>2015-05-02T11:28:32Z</time>
</trkpt>
<trkpt lat="35.0144844" lon="33.6241865">
<ele>78.3</ele>
<time>2015-05-02T11:29:00Z</time>
</trkpt>
<trkpt lat="35.0144529" lon="33.6232298">
<ele>78.9</ele>
<time>2015-05-02T11:29:17Z</time>
</trkpt>
<trkpt lat="35.0150981" lon="33.6217857">
<ele>81.9</ele>
<time>2015-05-02T11:29:50Z</time>
</trkpt>
<trkpt lat="35.0164420" lon="33.6213674">
<ele>83.5</ele>
<time>2015-05-02T11:30:49Z</time>
</trkpt>
<trkpt lat="35.0181991" lon="33.6214679">
<ele>84.5</ele>
<time>2015-05-02T11:31:23Z</time>
</trkpt>
<trkpt lat="35.0198542" lon="33.6212192">
<ele>84.8</ele>
<time>2015-05-02T11:31:53Z</time>
</trkpt>
<trkpt lat="35.0214954" lon="33.6211958">
<ele>85.9</ele>
<time>2015-05-02T11:32:33Z</time>
</trkpt>
<trkpt lat="35.0220770" lon="33.6206726">
<ele>87.4</ele>
<time>2015-05-02T11:32:49Z</time>
</trkpt>
<trkpt lat="35.0231874" lon="33.6187375">
<ele>90.5</ele>
<time>2015-05-02T11:33:29Z</time>
</trkpt>
<trkpt lat="35.0239685" lon="33.6181681">
<ele>93.0</ele>
<time>2015-05-02T11:33:48Z</time>
</trkpt>
<trkpt lat="35.0260728" lon="33.6176689">
<ele>95.6</ele>
<time>2015-05-02T11:34:31Z</time>
</trkpt>
<trkpt lat="35.0277043" lon="33.6167587">
<ele>100.3</ele>
<time>2015-05-02T11:35:13Z</time>
</trkpt>
<trkpt lat="35.0317586" lon="33.6151534">
<ele>107.3</ele>
<time>2015-05-02T11:36:51Z</time>
</trkpt>
<trkpt lat="35.0321988" lon="33.6154158">
<ele>109.7</ele>
<time>2015-05-02T11:37:09Z</time>
</trkpt>
<trkpt lat="35.0327201" lon="33.6154734">
<ele>109.9</ele>
<time>2015-05-02T11:41:36Z</time>
</trkpt>
<trkpt lat="35.0325695" lon="33.6165524">
<ele>109.2</ele>
<time>2015-05-02T11:42:03Z</time>
</trkpt>
<trkpt lat="35.0321260" lon="33.6161648">
<ele>107.9</ele>
<time>2015-05-02T11:42:18Z</time>
</trkpt>
<trkpt lat="35.0315446" lon="33.6159900">
<ele>108.0</ele>
<time>2015-05-02T11:42:30Z</time>
</trkpt>
<trkpt lat="35.0311761" lon="33.6155292">
<ele>107.2</ele>
<time>2015-05-02T11:42:41Z</time>
</trkpt>
<trkpt lat="35.0317667" lon="33.6151820">
<ele>107.3</ele>
<time>2015-05-02T11:43:07Z</time>
</trkpt>
<trkpt lat="35.0326029" lon="33.6154909">
<ele>109.6</ele>
<time>2015-05-02T11:43:29Z</time>
</trkpt>
<trkpt lat="35.0327711" lon="33.6147804">
<ele>113.5</ele>
<time>2015-05-02T11:43:45Z</time>
</trkpt>
<trkpt lat="35.0320482" lon="33.6129571">
<ele>108.4</ele>
<time>2015-05-02T11:44:15Z</time>
</trkpt>
<trkpt lat="35.0315062" lon="33.6120667">
<ele>108.8</ele>
<time>2015-05-02T11:44:29Z</time>
</trkpt>
<trkpt lat="35.0314432" lon="33.6114341">
<ele>110.3</ele>
<time>2015-05-02T11:44:39Z</time>
</trkpt>
<trkpt lat="35.0307840" lon="33.6096570">
<ele>103.9</ele>
<time>2015-05-02T11:45:01Z</time>
</trkpt>
<trkpt lat="35.0286333" lon="33.6069492">
<ele>104.8</ele>
<time>2015-05-02T11:45:53Z</time>
</trkpt>
<trkpt lat="35.0282002" lon="33.6059702">
<ele>105.0</ele>
<time>2015-05-02T11:46:09Z</time>
</trkpt>
<trkpt lat="35.0270594" lon="33.6057790">
<ele>106.4</ele>
<time>2015-05-02T11:46:35Z</time>
</trkpt>
<trkpt lat="35.0282187" lon="33.6059088">
<ele>105.2</ele>
<time>2015-05-02T11:47:27Z</time>
</trkpt>
<trkpt lat="35.0282039" lon="33.6043590">
<ele>108.0</ele>
<time>2015-05-02T11:47:56Z</time>
</trkpt>
<trkpt lat="35.0280238" lon="33.6032701">
<ele>109.5</ele>
<time>2015-05-02T11:48:18Z</time>
</trkpt>
<trkpt lat="35.0281124" lon="33.6020062">
<ele>111.5</ele>
<time>2015-05-02T11:48:40Z</time>
</trkpt>
<trkpt lat="35.0277539" lon="33.5990852">
<ele>115.8</ele>
<time>2015-05-02T11:49:30Z</time>
</trkpt>
<trkpt lat="35.0268357" lon="33.5956697">
<ele>123.2</ele>
<time>2015-05-02T11:50:42Z</time>
</trkpt>
<trkpt lat="35.0253682" lon="33.5937689">
<ele>130.6</ele>
<time>2015-05-02T11:51:33Z</time>
</trkpt>
<trkpt lat="35.0247423" lon="33.5920472">
<ele>135.2</ele>
<time>2015-05-02T11:52:12Z</time>
</trkpt>
<trkpt lat="35.0241998" lon="33.5911389">
<ele>139.7</ele>
<time>2015-05-02T11:52:37Z</time>
</trkpt>
<trkpt lat="35.0223276" lon="33.5905205">
<ele>133.8</ele>
<time>2015-05-02T11:53:15Z</time>
</trkpt>
<trkpt lat="35.0196707" lon="33.5889726">
<ele>124.4</ele>
<time>2015-05-02T11:53:59Z</time>
</trkpt>
<trkpt lat="35.0188314" lon="33.5879822">
<ele>124.5</ele>
<time>2015-05-02T11:54:21Z</time>
</trkpt>
<trkpt lat="35.0182750" lon="33.5864948">
<ele>131.0</ele>
<time>2015-05-02T11:55:18Z</time>
</trkpt>
<trkpt lat="35.0161812" lon="33.5849752">
<ele>131.0</ele>
<time>2015-05-02T11:56:14Z</time>
</trkpt>
<trkpt lat="35.0157677" lon="33.5844668">
<ele>131.3</ele>
<time>2015-05-02T11:56:26Z</time>
</trkpt>
<trkpt lat="35.0150219" lon="33.5830810">
<ele>132.2</ele>
<time>2015-05-02T11:56:56Z</time>
</trkpt>
<trkpt lat="35.0143410" lon="33.5797134">
<ele>142.5</ele>
<time>2015-05-02T11:58:04Z</time>
</trkpt>
<trkpt lat="35.0133210" lon="33.5785208">
<ele>148.1</ele>
<time>2015-05-02T11:58:59Z</time>
</trkpt>
<trkpt lat="35.0118798" lon="33.5762812">
<ele>140.1</ele>
<time>2015-05-02T11:59:49Z</time>
</trkpt>
<trkpt lat="35.0100332" lon="33.5741306">
<ele>132.3</ele>
<time>2015-05-02T12:01:07Z</time>
</trkpt>
<trkpt lat="35.0103397" lon="33.5710132">
<ele>131.2</ele>
<time>2015-05-02T12:02:04Z</time>
</trkpt>
<trkpt lat="35.0103176" lon="33.5706301">
<ele>132.0</ele>
<time>2015-05-02T12:02:09Z</time>
</trkpt>
<trkpt lat="35.0100688" lon="33.5701934">
<ele>133.5</ele>
<time>2015-05-02T12:02:23Z</time>
</trkpt>
<trkpt lat="35.0101408" lon="33.5693604">
<ele>136.1</ele>
<time>2015-05-02T12:02:44Z</time>
</trkpt>
<trkpt lat="35.0097914" lon="33.5694474">
<ele>135.0</ele>
<time>2015-05-02T12:02:54Z</time>
</trkpt>
<trkpt lat="35.0085758" lon="33.5704413">
<ele>129.3</ele>
<time>2015-05-02T12:03:20Z</time>
</trkpt>
<trkpt lat="35.0075717" lon="33.5705726">
<ele>125.7</ele>
<time>2015-05-02T12:03:38Z</time>
</trkpt>
<trkpt lat="35.0069553" lon="33.5708409">
<ele>124.2</ele>
<time>2015-05-02T12:03:49Z</time>
</trkpt>
<trkpt lat="35.0042872" lon="33.5726527">
<ele>119.0</ele>
<time>2015-05-02T12:04:40Z</time>
</trkpt>
<trkpt lat="35.0035038" lon="33.5728108">
<ele>116.2</ele>
<time>2015-05-02T12:04:52Z</time>
</trkpt>
<trkpt lat="35.0026021" lon="33.5737733">
<ele>111.8</ele>
<time>2015-05-02T12:05:11Z</time>
</trkpt>
<trkpt lat="35.0009947" lon="33.5746786">
<ele>113.8</ele>
<time>2015-05-02T12:05:52Z</time>
</trkpt>
<trkpt lat="35.0003264" lon="33.5746814">
<ele>113.8</ele>
<time>2015-05-02T12:06:07Z</time>
</trkpt>
<trkpt lat="34.9988816" lon="33.5742196">
<ele>111.7</ele>
<time>2015-05-02T12:06:39Z</time>
</trkpt>
<trkpt lat="34.9985351" lon="33.5739463">
<ele>110.7</ele>
<time>2015-05-02T12:06:48Z</time>
</trkpt>
<trkpt lat="34.9982168" lon="33.5732702">
<ele>112.9</ele>
<time>2015-05-02T12:07:07Z</time>
</trkpt>
<trkpt lat="34.9926298" lon="33.5759622">
<ele>129.0</ele>
<time>2015-05-02T12:11:02Z</time>
</trkpt>
<trkpt lat="34.9900685" lon="33.5763727">
<ele>122.3</ele>
<time>2015-05-02T12:12:04Z</time>
</trkpt>
<trkpt lat="34.9863398" lon="33.5774123">
<ele>106.8</ele>
<time>2015-05-02T12:15:00Z</time>
</trkpt>
<trkpt lat="34.9823661" lon="33.5789845">
<ele>95.7</ele>
<time>2015-05-02T12:16:04Z</time>
</trkpt>
<trkpt lat="34.9755030" lon="33.5809653">
<ele>82.2</ele>
<time>2015-05-02T12:17:56Z</time>
</trkpt>
<trkpt lat="34.9729320" lon="33.5829609">
<ele>74.7</ele>
<time>2015-05-02T12:18:46Z</time>
</trkpt>
<trkpt lat="34.9703166" lon="33.5842750">
<ele>69.8</ele>
<time>2015-05-02T12:19:36Z</time>
</trkpt>
<trkpt lat="34.9674041" lon="33.5844466">
<ele>65.3</ele>
<time>2015-05-02T12:20:27Z</time>
</trkpt>
<trkpt lat="34.9655958" lon="33.5848236">
<ele>66.5</ele>
<time>2015-05-02T12:21:02Z</time>
</trkpt>
<trkpt lat="34.9643709" lon="33.5846846">
<ele>62.5</ele>
<time>2015-05-02T12:21:24Z</time>
</trkpt>
<trkpt lat="34.9630130" lon="33.5841914">
<ele>57.7</ele>
<time>2015-05-02T12:21:50Z</time>
</trkpt>
<trkpt lat="34.9594254" lon="33.5847440">
<ele>54.3</ele>
<time>2015-05-02T12:23:11Z</time>
</trkpt>
<trkpt lat="34.9579926" lon="33.5857690">
<ele>52.8</ele>
<time>2015-05-02T12:23:44Z</time>
</trkpt>
<trkpt lat="34.9559140" lon="33.5869297">
<ele>49.5</ele>
<time>2015-05-02T12:24:32Z</time>
</trkpt>
<trkpt lat="34.9547099" lon="33.5882217">
<ele>50.3</ele>
<time>2015-05-02T12:25:04Z</time>
</trkpt>
<trkpt lat="34.9540095" lon="33.5887099">
<ele>55.7</ele>
<time>2015-05-02T12:25:35Z</time>
</trkpt>
<trkpt lat="34.9533631" lon="33.5899817">
<ele>58.6</ele>
<time>2015-05-02T12:26:32Z</time>
</trkpt>
<trkpt lat="34.9530510" lon="33.5901515">
<ele>57.8</ele>
<time>2015-05-02T12:26:57Z</time>
</trkpt>
<trkpt lat="34.9526588" lon="33.5893314">
<ele>58.0</ele>
<time>2015-05-02T12:27:30Z</time>
</trkpt>
<trkpt lat="34.9523136" lon="33.5856814">
<ele>56.8</ele>
<time>2015-05-02T12:28:45Z</time>
</trkpt>
<trkpt lat="34.9510311" lon="33.5799036">
<ele>66.1</ele>
<time>2015-05-02T12:30:43Z</time>
</trkpt>
<trkpt lat="34.9502155" lon="33.5779537">
<ele>70.2</ele>
<time>2015-05-02T12:31:30Z</time>
</trkpt>
<trkpt lat="34.9497018" lon="33.5746854">
<ele>70.8</ele>
<time>2015-05-02T12:32:37Z</time>
</trkpt>
<trkpt lat="34.9487430" lon="33.5755538">
<ele>67.2</ele>
<time>2015-05-02T12:33:06Z</time>
</trkpt>
<trkpt lat="34.9474887" lon="33.5772667">
<ele>62.6</ele>
<time>2015-05-02T12:33:41Z</time>
</trkpt>
<trkpt lat="34.9450740" lon="33.5766003">
<ele>71.6</ele>
<time>2015-05-02T12:44:15Z</time>
</trkpt>
<trkpt lat="34.9448170" lon="33.5761484">
<ele>73.3</ele>
<time>2015-05-02T12:44:50Z</time>
</trkpt>
<trkpt lat="34.9445221" lon="33.5734546">
<ele>85.8</ele>
<time>2015-05-02T12:47:06Z</time>
</trkpt>
<trkpt lat="34.9441470" lon="33.5724662">
<ele>84.9</ele>
<time>2015-05-02T12:47:30Z</time>
</trkpt>
<trkpt lat="34.9442514" lon="33.5715910">
<ele>86.2</ele>
<time>2015-05-02T12:47:46Z</time>
</trkpt>
<trkpt lat="34.9437063" lon="33.5702589">
<ele>88.5</ele>
<time>2015-05-02T12:48:11Z</time>
</trkpt>
<trkpt lat="34.9428769" lon="33.5705135">
<ele>89.9</ele>
<time>2015-05-02T12:48:38Z</time>
</trkpt>
<trkpt lat="34.9417051" lon="33.5712001">
<ele>92.8</ele>
<time>2015-05-02T12:49:25Z</time>
</trkpt>
<trkpt lat="34.9412007" lon="33.5711478">
<ele>96.6</ele>
<time>2015-05-02T12:49:41Z</time>
</trkpt>
<trkpt lat="34.9402356" lon="33.5715096">
<ele>98.7</ele>
<time>2015-05-02T12:50:09Z</time>
</trkpt>
<trkpt lat="34.9399265" lon="33.5721969">
<ele>100.9</ele>
<time>2015-05-02T12:50:25Z</time>
</trkpt>
<trkpt lat="34.9393815" lon="33.5728357">
<ele>103.0</ele>
<time>2015-05-02T12:50:45Z</time>
</trkpt>
<trkpt lat="34.9386130" lon="33.5729163">
<ele>101.4</ele>
<time>2015-05-02T12:55:53Z</time>
</trkpt>
<trkpt lat="34.9386799" lon="33.5727732">
<ele>103.4</ele>
<time>2015-05-02T12:56:33Z</time>
</trkpt>
<trkpt lat="34.9381990" lon="33.5725237">
<ele>104.9</ele>
<time>2015-05-02T12:57:07Z</time>
</trkpt>
<trkpt lat="34.9375435" lon="33.5728382">
<ele>100.3</ele>
<time>2015-05-02T12:57:36Z</time>
</trkpt>
<trkpt lat="34.9369109" lon="33.5728456">
<ele>92.1</ele>
<time>2015-05-02T12:57:49Z</time>
</trkpt>
<trkpt lat="34.9369521" lon="33.5723946">
<ele>92.0</ele>
<time>2015-05-02T12:57:59Z</time>
</trkpt>
<trkpt lat="34.9374322" lon="33.5723267">
<ele>98.4</ele>
<time>2015-05-02T12:58:13Z</time>
</trkpt>
<trkpt lat="34.9376646" lon="33.5717979">
<ele>93.2</ele>
<time>2015-05-02T12:58:29Z</time>
</trkpt>
<trkpt lat="34.9380279" lon="33.5721119">
<ele>102.6</ele>
<time>2015-05-02T12:58:41Z</time>
</trkpt>
<trkpt lat="34.9386272" lon="33.5722637">
<ele>102.6</ele>
<time>2015-05-02T12:58:57Z</time>
</trkpt>
<trkpt lat="34.9390302" lon="33.5726443">
<ele>103.4</ele>
<time>2015-05-02T12:59:09Z</time>
</trkpt>
<trkpt lat="34.9394591" lon="33.5726593">
<ele>102.1</ele>
<time>2015-05-02T12:59:18Z</time>
</trkpt>
<trkpt lat="34.9399136" lon="33.5721969">
<ele>100.7</ele>
<time>2015-05-02T12:59:31Z</time>
</trkpt>
<trkpt lat="34.9402102" lon="33.5715550">
<ele>98.7</ele>
<time>2015-05-02T12:59:43Z</time>
</trkpt>
<trkpt lat="34.9408410" lon="33.5713693">
<ele>98.3</ele>
<time>2015-05-02T13:00:02Z</time>
</trkpt>
<trkpt lat="34.9401360" lon="33.5710668">
<ele>94.2</ele>
<time>2015-05-02T13:00:22Z</time>
</trkpt>
<trkpt lat="34.9395176" lon="33.5711497">
<ele>84.2</ele>
<time>2015-05-02T13:00:41Z</time>
</trkpt>
<trkpt lat="34.9399663" lon="33.5697456">
<ele>84.9</ele>
<time>2015-05-02T13:01:19Z</time>
</trkpt>
<trkpt lat="34.9408641" lon="33.5688127">
<ele>94.6</ele>
<time>2015-05-02T13:02:29Z</time>
</trkpt>
<trkpt lat="34.9413032" lon="33.5692374">
<ele>102.6</ele>
<time>2015-05-02T13:03:05Z</time>
</trkpt>
<trkpt lat="34.9430624" lon="33.5690995">
<ele>98.1</ele>
<time>2015-05-02T13:04:20Z</time>
</trkpt>
<trkpt lat="34.9436925" lon="33.5702448">
<ele>88.7</ele>
<time>2015-05-02T13:04:49Z</time>
</trkpt>
<trkpt lat="34.9441396" lon="33.5699538">
<ele>88.4</ele>
<time>2015-05-02T13:05:17Z</time>
</trkpt>
<trkpt lat="34.9446980" lon="33.5698755">
<ele>85.0</ele>
<time>2015-05-02T13:05:28Z</time>
</trkpt>
<trkpt lat="34.9450704" lon="33.5694842">
<ele>83.8</ele>
<time>2015-05-02T13:05:42Z</time>
</trkpt>
<trkpt lat="34.9455783" lon="33.5695834">
<ele>89.3</ele>
<time>2015-05-02T13:06:13Z</time>
</trkpt>
<trkpt lat="34.9458618" lon="33.5705753">
<ele>99.4</ele>
<time>2015-05-02T13:07:23Z</time>
</trkpt>
<trkpt lat="34.9448140" lon="33.5712741">
<ele>94.2</ele>
<time>2015-05-02T13:08:06Z</time>
</trkpt>
<trkpt lat="34.9442993" lon="33.5725109">
<ele>86.3</ele>
<time>2015-05-02T13:08:27Z</time>
</trkpt>
<trkpt lat="34.9449041" lon="33.5762985">
<ele>73.2</ele>
<time>2015-05-02T13:09:22Z</time>
</trkpt>
<trkpt lat="34.9458257" lon="33.5761500">
<ele>71.3</ele>
<time>2015-05-02T13:09:49Z</time>
</trkpt>
<trkpt lat="34.9459832" lon="33.5764727">
<ele>67.6</ele>
<time>2015-05-02T13:09:57Z</time>
</trkpt>
<trkpt lat="34.9460976" lon="33.5764464">
<ele>68.5</ele>
<time>2015-05-02T13:10:01Z</time>
</trkpt>
<trkpt lat="34.9465752" lon="33.5756137">
<ele>73.1</ele>
<time>2015-05-02T13:10:27Z</time>
</trkpt>
<trkpt lat="34.9463412" lon="33.5751586">
<ele>76.1</ele>
<time>2015-05-02T13:10:44Z</time>
</trkpt>
<trkpt lat="34.9467298" lon="33.5748849">
<ele>73.0</ele>
<time>2015-05-02T13:10:54Z</time>
</trkpt>
<trkpt lat="34.9470869" lon="33.5741048">
<ele>73.1</ele>
<time>2015-05-02T13:11:10Z</time>
</trkpt>
<trkpt lat="34.9469518" lon="33.5737107">
<ele>74.9</ele>
<time>2015-05-02T13:11:19Z</time>
</trkpt>
<trkpt lat="34.9471030" lon="33.5711623">
<ele>80.5</ele>
<time>2015-05-02T13:12:35Z</time>
</trkpt>
<trkpt lat="34.9464846" lon="33.5701599">
<ele>84.0</ele>
<time>2015-05-02T13:13:07Z</time>
</trkpt>
<trkpt lat="34.9460955" lon="33.5698877">
<ele>86.5</ele>
<time>2015-05-02T13:13:17Z</time>
</trkpt>
<trkpt lat="34.9462049" lon="33.5691604">
<ele>77.0</ele>
<time>2015-05-02T13:13:34Z</time>
</trkpt>
<trkpt lat="34.9458060" lon="33.5684259">
<ele>76.1</ele>
<time>2015-05-02T13:13:52Z</time>
</trkpt>
<trkpt lat="34.9451510" lon="33.5685757">
<ele>76.7</ele>
<time>2015-05-02T13:14:08Z</time>
</trkpt>
<trkpt lat="34.9448067" lon="33.5692873">
<ele>80.4</ele>
<time>2015-05-02T13:14:28Z</time>
</trkpt>
<trkpt lat="34.9444642" lon="33.5692896">
<ele>81.4</ele>
<time>2015-05-02T13:14:38Z</time>
</trkpt>
<trkpt lat="34.9440134" lon="33.5696056">
<ele>86.9</ele>
<time>2015-05-02T13:15:03Z</time>
</trkpt>
<trkpt lat="34.9438227" lon="33.5702917">
<ele>88.1</ele>
<time>2015-05-02T13:15:42Z</time>
</trkpt>
<trkpt lat="34.9442454" lon="33.5715233">
<ele>86.0</ele>
<time>2015-05-02T13:16:13Z</time>
</trkpt>
<trkpt lat="34.9441620" lon="33.5725234">
<ele>84.8</ele>
<time>2015-05-02T13:16:35Z</time>
</trkpt>
<trkpt lat="34.9444668" lon="33.5731045">
<ele>85.7</ele>
<time>2015-05-02T13:16:48Z</time>
</trkpt>
<trkpt lat="34.9449063" lon="33.5765873">
<ele>74.1</ele>
<time>2015-05-02T13:17:32Z</time>
</trkpt>
<trkpt lat="34.9449233" lon="33.5768845">
<ele>73.7</ele>
<time>2015-05-02T13:17:37Z</time>
</trkpt>
<trkpt lat="34.9443302" lon="33.5785580">
<ele>69.5</ele>
<time>2015-05-02T13:18:18Z</time>
</trkpt>
<trkpt lat="34.9441984" lon="33.5797294">
<ele>61.1</ele>
<time>2015-05-02T13:18:31Z</time>
</trkpt>
<trkpt lat="34.9444155" lon="33.5801131">
<ele>60.5</ele>
<time>2015-05-02T13:20:25Z</time>
</trkpt>
<trkpt lat="34.9435881" lon="33.5809510">
<ele>59.2</ele>
<time>2015-05-02T13:20:57Z</time>
</trkpt>
<trkpt lat="34.9424046" lon="33.5810462">
<ele>56.9</ele>
<time>2015-05-02T13:21:23Z</time>
</trkpt>
<trkpt lat="34.9419494" lon="33.5813064">
<ele>55.1</ele>
<time>2015-05-02T13:21:33Z</time>
</trkpt>
<trkpt lat="34.9427688" lon="33.5826762">
<ele>57.5</ele>
<time>2015-05-02T13:23:04Z</time>
</trkpt>
<trkpt lat="34.9376557" lon="33.5893980">
<ele>45.6</ele>
<time>2015-05-02T13:25:13Z</time>
</trkpt>
<trkpt lat="34.9375651" lon="33.5899378">
<ele>47.5</ele>
<time>2015-05-02T13:25:22Z</time>
</trkpt>
<trkpt lat="34.9366415" lon="33.5907420">
<ele>43.2</ele>
<time>2015-05-02T13:25:42Z</time>
</trkpt>
<trkpt lat="34.9329747" lon="33.5958052">
<ele>36.2</ele>
<time>2015-05-02T13:27:53Z</time>
</trkpt>
<trkpt lat="34.9328589" lon="33.5954327">
<ele>36.0</ele>
<time>2015-05-02T13:28:38Z</time>
</trkpt>
<trkpt lat="34.9335003" lon="33.5946210">
<ele>39.0</ele>
<time>2015-05-02T13:29:11Z</time>
</trkpt>
<trkpt lat="34.9336139" lon="33.5942409">
<ele>40.4</ele>
<time>2015-05-02T13:31:24Z</time>
</trkpt>
<trkpt lat="34.9338081" lon="33.5941985">
<ele>40.1</ele>
<time>2015-05-02T13:49:16Z</time>
</trkpt>
<trkpt lat="34.9333945" lon="33.5936271">
<ele>37.7</ele>
<time>2015-05-02T13:54:17Z</time>
</trkpt>
<trkpt lat="34.9336948" lon="33.5938761">
<ele>39.2</ele>
<time>2015-05-02T14:28:14Z</time>
</trkpt>
<trkpt lat="34.9336258" lon="33.5943278">
<ele>40.4</ele>
<time>2015-05-02T14:31:12Z</time>
</trkpt>
<trkpt lat="34.9328954" lon="33.5953766">
<ele>36.1</ele>
<time>2015-05-02T14:41:01Z</time>
</trkpt>
<trkpt lat="34.9325492" lon="33.5953454">
<ele>35.9</ele>
<time>2015-05-02T14:41:15Z</time>
</trkpt>
<trkpt lat="34.9327373" lon="33.5960375">
<ele>36.2</ele>
<time>2015-05-02T14:41:51Z</time>
</trkpt>
<trkpt lat="34.9315013" lon="33.5979257">
<ele>34.2</ele>
<time>2015-05-02T14:42:33Z</time>
</trkpt>
<trkpt lat="34.9287447" lon="33.6035817">
<ele>27.8</ele>
<time>2015-05-02T14:44:14Z</time>
</trkpt>
<trkpt lat="34.9290148" lon="33.6041488">
<ele>28.6</ele>
<time>2015-05-02T14:45:14Z</time>
</trkpt>
<trkpt lat="34.9322930" lon="33.6060990">
<ele>27.2</ele>
<time>2015-05-02T14:46:13Z</time>
</trkpt>
<trkpt lat="34.9339226" lon="33.6079058">
<ele>23.1</ele>
<time>2015-05-02T14:47:21Z</time>
</trkpt>
<trkpt lat="34.9336946" lon="33.6083160">
<ele>22.4</ele>
<time>2015-05-02T14:47:29Z</time>
</trkpt>
<trkpt lat="34.9320224" lon="33.6099962">
<ele>20.4</ele>
<time>2015-05-02T14:48:03Z</time>
</trkpt>
<trkpt lat="34.9312609" lon="33.6112797">
<ele>17.7</ele>
<time>2015-05-02T14:48:21Z</time>
</trkpt>
<trkpt lat="34.9307311" lon="33.6137807">
<ele>15.4</ele>
<time>2015-05-02T14:48:56Z</time>
</trkpt>
<trkpt lat="34.9308728" lon="33.6145554">
<ele>14.2</ele>
<time>2015-05-02T14:49:06Z</time>
</trkpt>
<trkpt lat="34.9305377" lon="33.6151005">
<ele>13.9</ele>
<time>2015-05-02T14:49:14Z</time>
</trkpt>
<trkpt lat="34.9304168" lon="33.6156741">
<ele>12.2</ele>
<time>2015-05-02T14:49:21Z</time>
</trkpt>
<trkpt lat="34.9300598" lon="33.6191565">
<ele>7.7</ele>
<time>2015-05-02T14:50:31Z</time>
</trkpt>
<trkpt lat="34.9303094" lon="33.6210033">
<ele>7.4</ele>
<time>2015-05-02T14:51:13Z</time>
</trkpt>
<trkpt lat="34.9302829" lon="33.6222881">
<ele>5.3</ele>
<time>2015-05-02T14:52:02Z</time>
</trkpt>
<trkpt lat="34.9305604" lon="33.6251524">
<ele>5.4</ele>
<time>2015-05-02T14:53:01Z</time>
</trkpt>
<trkpt lat="34.9304909" lon="33.6325433">
<ele>4.6</ele>
<time>2015-05-02T14:55:05Z</time>
</trkpt>
<trkpt lat="34.9288807" lon="33.6331518">
<ele>3.2</ele>
<time>2015-05-02T14:55:57Z</time>
</trkpt>
<trkpt lat="34.9270545" lon="33.6335569">
<ele>4.6</ele>
<time>2015-05-02T14:56:42Z</time>
</trkpt>
<trkpt lat="34.9272876" lon="33.6341931">
<ele>2.9</ele>
<time>2015-05-02T14:56:56Z</time>
</trkpt>
<trkpt lat="34.9279709" lon="33.6336612">
<ele>3.8</ele>
<time>2015-05-02T14:57:15Z</time>
</trkpt>
<trkpt lat="34.9282638" lon="33.6338719">
<ele>4.7</ele>
<time>2015-05-02T14:57:24Z</time>
</trkpt>
<trkpt lat="34.9283271" lon="33.6343181">
<ele>4.1</ele>
<time>2015-05-02T14:57:30Z</time>
</trkpt>
<trkpt lat="34.9280300" lon="33.6366985">
<ele>6.0</ele>
<time>2015-05-02T15:04:14Z</time>
</trkpt>
<trkpt lat="34.9273878" lon="33.6367559">
<ele>5.5</ele>
<time>2015-05-02T15:07:35Z</time>
</trkpt>
<trkpt lat="34.9272250" lon="33.6381153">
<ele>5.0</ele>
<time>2015-05-02T15:09:21Z</time>
</trkpt>
<trkpt lat="34.9259632" lon="33.6380505">
<ele>3.5</ele>
<time>2015-05-02T15:10:30Z</time>
</trkpt>
<trkpt lat="34.9237683" lon="33.6375217">
<ele>4.1</ele>
<time>2015-05-02T15:11:51Z</time>
</trkpt>
<trkpt lat="34.9216498" lon="33.6373435">
<ele>4.2</ele>
<time>2015-05-02T15:13:08Z</time>
</trkpt>
<trkpt lat="34.9213055" lon="33.6368283">
<ele>3.3</ele>
<time>2015-05-02T15:14:08Z</time>
</trkpt>
<trkpt lat="34.9206178" lon="33.6369154">
<ele>4.2</ele>
<time>2015-05-02T15:15:00Z</time>
</trkpt>
<trkpt lat="34.9190644" lon="33.6366349">
<ele>3.5</ele>
<time>2015-05-02T15:16:35Z</time>
</trkpt>
<trkpt lat="34.9188932" lon="33.6378954">
<ele>2.9</ele>
<time>2015-05-02T15:17:19Z</time>
</trkpt>
<trkpt lat="34.9180044" lon="33.6379442">
<ele>2.1</ele>
<time>2015-05-02T15:18:30Z</time>
</trkpt>
<trkpt lat="34.9177176" lon="33.6378093">
<ele>2.8</ele>
<time>2015-05-02T15:18:51Z</time>
</trkpt>
<trkpt lat="34.9165319" lon="33.6380559">
<ele>2.7</ele>
<time>2015-05-02T15:20:52Z</time>
</trkpt>
<trkpt lat="34.9164425" lon="33.6382074">
<ele>2.1</ele>
<time>2015-05-02T15:21:05Z</time>
</trkpt>
<trkpt lat="34.9105415" lon="33.6377724">
<ele>1.8</ele>
<time>2015-05-02T15:27:46Z</time>
</trkpt>
<trkpt lat="34.9101239" lon="33.6379014">
<ele>0.7</ele>
<time>2015-05-02T15:28:16Z</time>
</trkpt>
<trkpt lat="34.9049625" lon="33.6378751">
<ele>0.3</ele>
<time>2015-05-02T15:32:17Z</time>
</trkpt>
<trkpt lat="34.9033701" lon="33.6377353">
<ele>1.7</ele>
<time>2015-05-02T15:33:14Z</time>
</trkpt>
<trkpt lat="34.8957741" lon="33.6385420">
<ele>1.6</ele>
<time>2015-05-02T15:40:45Z</time>
</trkpt>
<trkpt lat="34.8950876" lon="33.6384178">
<ele>2.4</ele>
<time>2015-05-02T15:41:48Z</time>
</trkpt>
<trkpt lat="34.8932611" lon="33.6385873">
<ele>1.4</ele>
<time>2015-05-02T15:44:28Z</time>
</trkpt>
<trkpt lat="34.8921490" lon="33.6380142">
<ele>2.5</ele>
<time>2015-05-02T15:46:01Z</time>
</trkpt>
<trkpt lat="34.8914586" lon="33.6356482">
<ele>2.4</ele>
<time>2015-05-02T15:48:32Z</time>
</trkpt>
<trkpt lat="34.8916271" lon="33.6349994">
<ele>3.6</ele>
<time>2015-05-02T15:48:56Z</time>
</trkpt>
<trkpt lat="34.8927591" lon="33.6343880">
<ele>13.6</ele>
<time>2015-05-02T15:50:50Z</time>
</trkpt>
<trkpt lat="34.8929800" lon="33.6348638">
<ele>11.6</ele>
<time>2015-05-02T15:51:25Z</time>
</trkpt>
<trkpt lat="34.8928424" lon="33.6352056">
<ele>13.2</ele>
<time>2015-05-02T15:53:51Z</time>
</trkpt>
</trkseg>
</trk>
</gpx>